sensor_id;sensor_type;location;lat;lon;timestamp;temperature;humidity
19397;DHT22;9834;48.076;11.878;2024-01-15T00:02:07;-3.70;99.90
19397;DHT22;9834;48.076;11.878;2024-01-15T00:04:37;-3.70;99.90
19397;DHT22;9834;48.076;11.878;2024-01-15T00:07:08;-3.80;99.90
19397;DHT22;9834;48.076;11.878;2024-01-15T00:09:35;-3.80;99.90
19397;DHT22;9834;48.076;11.878;2024-01-15T00:12:06;-3.90;99.90
19397;DHT22;9834;48.076;11.878;2024-01-15T00:14:33;-3.90;99.90
19397;DHT22;9834;48.076;11.878;2024-01-15T00:17:00;-4.00;99.90
19397;DHT22;9834;48.076;11.878;2024-01-15T00:19:28;-4.10;99.90
19397;DHT22;9834;48.076;11.878;2024-01-15T00:22:02;-4.20;99.90
19397;DHT22;9834;48.076;11.878;2024-01-15T00:24:36;-4.30;99.90
19397;DHT22;9834;48.076;11.878;2024-01-15T00:27:06;-4.30;99.90
19397;DHT22;9834;48.076;11.878;2024-01-15T00:32:18;-4.30;99.90
19397;DHT22;9834;48.076;11.878;2024-01-15T00:34:46;-4.20;99.90
19397;DHT22;9834;48.076;11.878;2024-01-15T00:37:19;-4.00;99.90
19397;DHT22;9834;48.076;11.878;2024-01-15T00:39:49;-3.80;99.90
19397;DHT22;9834;48.076;11.878;2024-01-15T00:42:20;-3.40;99.90
19397;DHT22;9834;48.076;11.878;2024-01-15T00:44:48;-2.90;99.90
19397;DHT22;9834;48.076;11.878;2024-01-15T00:47:15;-2.50;99.90
19397;DHT22;9834;48.076;11.878;2024-01-15T00:49:52;-2.20;99.90
19397;DHT22;9834;48.076;11.878;2024-01-15T00:52:21;-1.90;99.90
19397;DHT22;9834;48.076;11.878;2024-01-15T00:54:48;-1.60;99.90
19397;DHT22;9834;48.076;11.878;2024-01-15T00:57:16;-1.40;99.90
19397;DHT22;9834;48.076;11.878;2024-01-15T00:59:49;-1.20;99.90
19397;DHT22;9834;48.076;11.878;2024-01-15T01:02:17;-1.00;99.90
19397;DHT22;9834;48.076;11.878;2024-01-15T01:04:46;-0.70;99.90
19397;DHT22;9834;48.076;11.878;2024-01-15T01:07:14;-0.50;99.90
19397;DHT22;9834;48.076;11.878;2024-01-15T01:09:43;-0.50;99.90
19397;DHT22;9834;48.076;11.878;2024-01-15T01:12:11;-0.30;99.90
19397;DHT22;9834;48.076;11.878;2024-01-15T01:14:42;-0.20;99.90
19397;DHT22;9834;48.076;11.878;2024-01-15T01:17:09;-0.20;99.90
19397;DHT22;9834;48.076;11.878;2024-01-15T01:19:37;-0.10;99.90
19397;DHT22;9834;48.076;11.878;2024-01-15T01:22:07;-0.10;99.90
19397;DHT22;9834;48.076;11.878;2024-01-15T01:24:36;-0.10;99.90
19397;DHT22;9834;48.076;11.878;2024-01-15T01:27:17;-0.10;99.90
19397;DHT22;9834;48.076;11.878;2024-01-15T01:29:47;-0.10;99.90
19397;DHT22;9834;48.076;11.878;2024-01-15T01:32:15;-0.10;99.90
19397;DHT22;9834;48.076;11.878;2024-01-15T01:34:45;-0.20;99.90
19397;DHT22;9834;48.076;11.878;2024-01-15T01:37:16;-0.30;99.90
19397;DHT22;9834;48.076;11.878;2024-01-15T01:39:44;-0.40;99.90
19397;DHT22;9834;48.076;11.878;2024-01-15T01:42:12;-0.50;99.90
19397;DHT22;9834;48.076;11.878;2024-01-15T01:44:44;-0.60;99.90
19397;DHT22;9834;48.076;11.878;2024-01-15T01:47:11;-0.70;99.90
19397;DHT22;9834;48.076;11.878;2024-01-15T01:49:41;-0.80;99.90
19397;DHT22;9834;48.076;11.878;2024-01-15T01:52:18;-0.90;99.90
19397;DHT22;9834;48.076;11.878;2024-01-15T01:54:47;-0.90;99.90
19397;DHT22;9834;48.076;11.878;2024-01-15T01:57:15;-1.00;99.90
19397;DHT22;9834;48.076;11.878;2024-01-15T01:59:46;-1.10;99.90
19397;DHT22;9834;48.076;11.878;2024-01-15T02:02:15;-1.10;99.90
19397;DHT22;9834;48.076;11.878;2024-01-15T02:04:42;-1.20;99.90
19397;DHT22;9834;48.076;11.878;2024-01-15T02:07:11;-1.20;99.90
19397;DHT22;9834;48.076;11.878;2024-01-15T02:09:42;-1.30;99.90
19397;DHT22;9834;48.076;11.878;2024-01-15T02:12:10;-1.30;99.90
19397;DHT22;9834;48.076;11.878;2024-01-15T02:14:48;-1.30;99.90
19397;DHT22;9834;48.076;11.878;2024-01-15T02:17:17;-1.40;99.90
19397;DHT22;9834;48.076;11.878;2024-01-15T02:19:44;-1.50;99.90
19397;DHT22;9834;48.076;11.878;2024-01-15T02:22:13;-1.50;99.90
19397;DHT22;9834;48.076;11.878;2024-01-15T02:24:41;-1.40;99.90
19397;DHT22;9834;48.076;11.878;2024-01-15T02:27:11;-1.50;99.90
19397;DHT22;9834;48.076;11.878;2024-01-15T02:29:58;-1.40;99.90
19397;DHT22;9834;48.076;11.878;2024-01-15T02:32:27;-1.40;99.90
19397;DHT22;9834;48.076;11.878;2024-01-15T02:34:57;-1.20;99.90
19397;DHT22;9834;48.076;11.878;2024-01-15T02:37:28;-1.20;99.90
19397;DHT22;9834;48.076;11.878;2024-01-15T02:40:01;-1.10;99.90
19397;DHT22;9834;48.076;11.878;2024-01-15T02:42:31;-1.00;99.90
19397;DHT22;9834;48.076;11.878;2024-01-15T02:45:00;-1.00;99.90
19397;DHT22;9834;48.076;11.878;2024-01-15T02:47:27;-1.00;99.90
19397;DHT22;9834;48.076;11.878;2024-01-15T02:49:58;-1.10;99.90
19397;DHT22;9834;48.076;11.878;2024-01-15T02:52:25;-1.10;99.90
19397;DHT22;9834;48.076;11.878;2024-01-15T02:54:57;-1.10;99.90
19397;DHT22;9834;48.076;11.878;2024-01-15T02:57:34;-1.20;99.90
19397;DHT22;9834;48.076;11.878;2024-01-15T03:00:07;-1.20;99.90
19397;DHT22;9834;48.076;11.878;2024-01-15T03:02:36;-1.30;99.90
19397;DHT22;9834;48.076;11.878;2024-01-15T03:05:06;-1.30;99.90
19397;DHT22;9834;48.076;11.878;2024-01-15T03:07:36;-1.30;99.90
19397;DHT22;9834;48.076;11.878;2024-01-15T03:10:15;-1.40;99.90
19397;DHT22;9834;48.076;11.878;2024-01-15T03:12:45;-1.30;99.90
19397;DHT22;9834;48.076;11.878;2024-01-15T03:15:16;-1.40;99.90
19397;DHT22;9834;48.076;11.878;2024-01-15T03:17:44;-1.40;99.90
19397;DHT22;9834;48.076;11.878;2024-01-15T03:20:15;-1.40;99.90
19397;DHT22;9834;48.076;11.878;2024-01-15T03:22:48;-1.40;99.90
19397;DHT22;9834;48.076;11.878;2024-01-15T03:25:18;-1.40;99.90
19397;DHT22;9834;48.076;11.878;2024-01-15T03:27:48;-1.40;99.90
19397;DHT22;9834;48.076;11.878;2024-01-15T03:30:18;-1.30;99.90
19397;DHT22;9834;48.076;11.878;2024-01-15T03:32:45;-1.30;99.90
19397;DHT22;9834;48.076;11.878;2024-01-15T03:35:18;-1.30;99.90
19397;DHT22;9834;48.076;11.878;2024-01-15T03:37:55;-1.30;99.90
19397;DHT22;9834;48.076;11.878;2024-01-15T03:40:22;-1.30;99.90
19397;DHT22;9834;48.076;11.878;2024-01-15T03:42:53;-1.20;99.90
19397;DHT22;9834;48.076;11.878;2024-01-15T03:45:24;-1.20;99.90
19397;DHT22;9834;48.076;11.878;2024-01-15T03:47:59;-1.20;99.90
19397;DHT22;9834;48.076;11.878;2024-01-15T03:50:40;-1.10;99.90
19397;DHT22;9834;48.076;11.878;2024-01-15T03:53:08;-1.20;99.90
19397;DHT22;9834;48.076;11.878;2024-01-15T03:55:40;-1.20;99.90
19397;DHT22;9834;48.076;11.878;2024-01-15T03:58:11;-1.30;99.90
19397;DHT22;9834;48.076;11.878;2024-01-15T04:00:46;-1.20;99.90
19397;DHT22;9834;48.076;11.878;2024-01-15T04:03:16;-1.20;99.90
19397;DHT22;9834;48.076;11.878;2024-01-15T04:05:48;-1.20;99.90
19397;DHT22;9834;48.076;11.878;2024-01-15T04:08:15;-1.30;99.90
19397;DHT22;9834;48.076;11.878;2024-01-15T04:10:43;-1.20;99.90
19397;DHT22;9834;48.076;11.878;2024-01-15T04:13:10;-1.30;99.90
19397;DHT22;9834;48.076;11.878;2024-01-15T04:15:37;-1.30;99.90
19397;DHT22;9834;48.076;11.878;2024-01-15T04:18:23;-1.30;99.90
19397;DHT22;9834;48.076;11.878;2024-01-15T04:20:51;-1.30;99.90
19397;DHT22;9834;48.076;11.878;2024-01-15T04:23:18;-1.30;99.90
19397;DHT22;9834;48.076;11.878;2024-01-15T04:25:48;-1.30;99.90
19397;DHT22;9834;48.076;11.878;2024-01-15T04:28:16;-1.30;99.90
19397;DHT22;9834;48.076;11.878;2024-01-15T04:30:54;-1.30;99.90
19397;DHT22;9834;48.076;11.878;2024-01-15T04:33:23;-1.30;99.90
19397;DHT22;9834;48.076;11.878;2024-01-15T04:35:53;-1.30;99.90
19397;DHT22;9834;48.076;11.878;2024-01-15T04:38:22;-1.30;99.90
19397;DHT22;9834;48.076;11.878;2024-01-15T04:40:58;-1.30;99.90
19397;DHT22;9834;48.076;11.878;2024-01-15T04:43:26;-1.30;99.90
19397;DHT22;9834;48.076;11.878;2024-01-15T04:45:56;-1.40;99.90
19397;DHT22;9834;48.076;11.878;2024-01-15T04:48:28;-1.30;99.90
19397;DHT22;9834;48.076;11.878;2024-01-15T04:50:58;-1.40;99.90
19397;DHT22;9834;48.076;11.878;2024-01-15T04:53:26;-1.30;99.90
19397;DHT22;9834;48.076;11.878;2024-01-15T04:55:53;-1.30;99.90
19397;DHT22;9834;48.076;11.878;2024-01-15T04:58:19;-1.30;99.90
19397;DHT22;9834;48.076;11.878;2024-01-15T05:00:57;-1.30;99.90
19397;DHT22;9834;48.076;11.878;2024-01-15T05:03:24;-1.30;99.90
19397;DHT22;9834;48.076;11.878;2024-01-15T05:05:53;-1.30;99.90
19397;DHT22;9834;48.076;11.878;2024-01-15T05:08:24;-1.40;99.90
19397;DHT22;9834;48.076;11.878;2024-01-15T05:10:53;-1.40;99.90
19397;DHT22;9834;48.076;11.878;2024-01-15T05:13:23;-1.40;99.90
19397;DHT22;9834;48.076;11.878;2024-01-15T05:15:59;-1.40;99.90
19397;DHT22;9834;48.076;11.878;2024-01-15T05:18:29;-1.40;99.90
19397;DHT22;9834;48.076;11.878;2024-01-15T05:21:00;-1.40;99.90
19397;DHT22;9834;48.076;11.878;2024-01-15T05:23:32;-1.40;99.90
19397;DHT22;9834;48.076;11.878;2024-01-15T05:25:59;-1.40;99.90
19397;DHT22;9834;48.076;11.878;2024-01-15T05:28:27;-1.40;99.90
19397;DHT22;9834;48.076;11.878;2024-01-15T05:30:57;-1.30;99.90
19397;DHT22;9834;48.076;11.878;2024-01-15T05:33:25;-1.30;99.90
19397;DHT22;9834;48.076;11.878;2024-01-15T05:35:52;-1.30;99.90
19397;DHT22;9834;48.076;11.878;2024-01-15T05:38:22;-1.30;99.90
19397;DHT22;9834;48.076;11.878;2024-01-15T05:40:50;-1.30;99.90
19397;DHT22;9834;48.076;11.878;2024-01-15T05:43:17;-1.30;99.90
19397;DHT22;9834;48.076;11.878;2024-01-15T05:45:45;-1.30;99.90
19397;DHT22;9834;48.076;11.878;2024-01-15T05:48:21;-1.30;99.90
19397;DHT22;9834;48.076;11.878;2024-01-15T05:50:54;-1.30;99.90
19397;DHT22;9834;48.076;11.878;2024-01-15T05:53:43;-1.30;99.90
19397;DHT22;9834;48.076;11.878;2024-01-15T05:56:11;-1.30;99.90
19397;DHT22;9834;48.076;11.878;2024-01-15T05:58:38;-1.30;99.90
19397;DHT22;9834;48.076;11.878;2024-01-15T06:01:06;-1.40;99.90
19397;DHT22;9834;48.076;11.878;2024-01-15T06:03:33;-1.40;99.90
19397;DHT22;9834;48.076;11.878;2024-01-15T06:06:00;-1.40;99.90
19397;DHT22;9834;48.076;11.878;2024-01-15T06:08:28;-1.40;99.90
19397;DHT22;9834;48.076;11.878;2024-01-15T06:11:05;-1.40;99.90
19397;DHT22;9834;48.076;11.878;2024-01-15T06:13:38;-1.30;99.90
19397;DHT22;9834;48.076;11.878;2024-01-15T06:16:21;-1.30;99.90
19397;DHT22;9834;48.076;11.878;2024-01-15T06:18:50;-1.40;99.90
19397;DHT22;9834;48.076;11.878;2024-01-15T06:21:17;-1.40;99.90
19397;DHT22;9834;48.076;11.878;2024-01-15T06:23:44;-1.40;99.90
19397;DHT22;9834;48.076;11.878;2024-01-15T06:26:16;-1.40;99.90
19397;DHT22;9834;48.076;11.878;2024-01-15T06:28:53;-1.40;99.90
19397;DHT22;9834;48.076;11.878;2024-01-15T06:31:21;-1.40;99.90
19397;DHT22;9834;48.076;11.878;2024-01-15T06:33:48;-1.40;99.90
19397;DHT22;9834;48.076;11.878;2024-01-15T06:36:18;-1.40;99.90
19397;DHT22;9834;48.076;11.878;2024-01-15T06:38:45;-1.40;99.90
19397;DHT22;9834;48.076;11.878;2024-01-15T06:41:14;-1.40;99.90
19397;DHT22;9834;48.076;11.878;2024-01-15T06:43:42;-1.60;99.90
19397;DHT22;9834;48.076;11.878;2024-01-15T06:46:09;-1.40;99.90
19397;DHT22;9834;48.076;11.878;2024-01-15T06:48:42;-1.30;99.90
19397;DHT22;9834;48.076;11.878;2024-01-15T06:51:10;-1.40;99.90
19397;DHT22;9834;48.076;11.878;2024-01-15T06:53:39;-1.40;99.90
19397;DHT22;9834;48.076;11.878;2024-01-15T06:56:06;-1.40;99.90
19397;DHT22;9834;48.076;11.878;2024-01-15T06:58:38;-1.50;99.90
19397;DHT22;9834;48.076;11.878;2024-01-15T07:01:06;-1.50;99.90
19397;DHT22;9834;48.076;11.878;2024-01-15T07:03:34;-1.50;99.90
19397;DHT22;9834;48.076;11.878;2024-01-15T07:06:01;-1.50;99.90
19397;DHT22;9834;48.076;11.878;2024-01-15T07:08:28;-1.40;99.90
19397;DHT22;9834;48.076;11.878;2024-01-15T07:11:04;-1.50;99.90
19397;DHT22;9834;48.076;11.878;2024-01-15T07:13:36;-1.40;99.90
19397;DHT22;9834;48.076;11.878;2024-01-15T07:16:04;-1.40;99.90
19397;DHT22;9834;48.076;11.878;2024-01-15T07:18:32;-1.40;99.90
19397;DHT22;9834;48.076;11.878;2024-01-15T07:20:59;-1.50;99.90
19397;DHT22;9834;48.076;11.878;2024-01-15T07:23:28;-1.50;99.90
19397;DHT22;9834;48.076;11.878;2024-01-15T07:25:56;-1.50;99.90
19397;DHT22;9834;48.076;11.878;2024-01-15T07:28:23;-1.50;99.90
19397;DHT22;9834;48.076;11.878;2024-01-15T07:30:56;-1.50;99.90
19397;DHT22;9834;48.076;11.878;2024-01-15T07:33:23;-1.50;99.90
19397;DHT22;9834;48.076;11.878;2024-01-15T07:35:53;-1.50;99.90
19397;DHT22;9834;48.076;11.878;2024-01-15T07:38:27;-1.40;99.90
19397;DHT22;9834;48.076;11.878;2024-01-15T07:40:56;-1.40;99.90
19397;DHT22;9834;48.076;11.878;2024-01-15T07:43:23;-1.40;99.90
19397;DHT22;9834;48.076;11.878;2024-01-15T07:45:53;-1.40;99.90
19397;DHT22;9834;48.076;11.878;2024-01-15T07:48:22;-1.40;99.90
19397;DHT22;9834;48.076;11.878;2024-01-15T07:50:50;-1.40;99.90
19397;DHT22;9834;48.076;11.878;2024-01-15T07:53:21;-1.30;99.90
19397;DHT22;9834;48.076;11.878;2024-01-15T07:55:56;-1.30;99.90
19397;DHT22;9834;48.076;11.878;2024-01-15T07:58:23;-1.20;99.90
19397;DHT22;9834;48.076;11.878;2024-01-15T08:01:00;-1.20;99.90
19397;DHT22;9834;48.076;11.878;2024-01-15T08:03:29;-1.20;99.90
19397;DHT22;9834;48.076;11.878;2024-01-15T08:06:04;-1.20;99.90
19397;DHT22;9834;48.076;11.878;2024-01-15T08:08:32;-1.10;99.90
19397;DHT22;9834;48.076;11.878;2024-01-15T08:11:00;-1.10;99.90
19397;DHT22;9834;48.076;11.878;2024-01-15T08:13:30;-1.10;99.90
19397;DHT22;9834;48.076;11.878;2024-01-15T08:15:59;-1.00;99.90
19397;DHT22;9834;48.076;11.878;2024-01-15T08:18:29;-0.90;99.90
19397;DHT22;9834;48.076;11.878;2024-01-15T08:20:56;-0.90;99.90
19397;DHT22;9834;48.076;11.878;2024-01-15T08:23:27;-0.90;99.90
19397;DHT22;9834;48.076;11.878;2024-01-15T08:25:57;-0.80;99.90
19397;DHT22;9834;48.076;11.878;2024-01-15T08:28:25;-0.80;99.90
19397;DHT22;9834;48.076;11.878;2024-01-15T08:30:56;-0.80;99.90
19397;DHT22;9834;48.076;11.878;2024-01-15T08:33:24;-0.90;99.90
19397;DHT22;9834;48.076;11.878;2024-01-15T08:35:55;-0.80;99.90
19397;DHT22;9834;48.076;11.878;2024-01-15T08:38:28;-0.90;99.90
19397;DHT22;9834;48.076;11.878;2024-01-15T08:40:56;-0.80;99.90
19397;DHT22;9834;48.076;11.878;2024-01-15T08:43:26;-0.80;99.90
19397;DHT22;9834;48.076;11.878;2024-01-15T08:46:02;-0.80;99.90
19397;DHT22;9834;48.076;11.878;2024-01-15T08:48:33;-0.80;99.90
19397;DHT22;9834;48.076;11.878;2024-01-15T08:51:02;-0.70;99.90
19397;DHT22;9834;48.076;11.878;2024-01-15T08:53:32;-0.70;99.90
19397;DHT22;9834;48.076;11.878;2024-01-15T08:56:00;-0.60;99.90
19397;DHT22;9834;48.076;11.878;2024-01-15T08:58:36;-0.60;99.90
19397;DHT22;9834;48.076;11.878;2024-01-15T09:01:09;-0.60;99.90
19397;DHT22;9834;48.076;11.878;2024-01-15T09:03:37;-0.60;99.90
19397;DHT22;9834;48.076;11.878;2024-01-15T09:06:06;-0.60;99.90
19397;DHT22;9834;48.076;11.878;2024-01-15T09:08:35;-0.60;99.90
19397;DHT22;9834;48.076;11.878;2024-01-15T09:11:03;-0.60;99.90
19397;DHT22;9834;48.076;11.878;2024-01-15T09:13:33;-0.60;99.90
19397;DHT22;9834;48.076;11.878;2024-01-15T09:16:04;-0.60;99.90
19397;DHT22;9834;48.076;11.878;2024-01-15T09:18:35;-0.50;99.90
19397;DHT22;9834;48.076;11.878;2024-01-15T09:21:04;-0.50;99.90
19397;DHT22;9834;48.076;11.878;2024-01-15T09:23:35;-0.40;99.90
19397;DHT22;9834;48.076;11.878;2024-01-15T09:26:09;-0.40;99.90
19397;DHT22;9834;48.076;11.878;2024-01-15T09:28:36;-0.30;99.90
19397;DHT22;9834;48.076;11.878;2024-01-15T09:31:04;-0.30;99.90
19397;DHT22;9834;48.076;11.878;2024-01-15T09:33:32;-0.30;99.90
19397;DHT22;9834;48.076;11.878;2024-01-15T09:36:03;-0.30;99.90
19397;DHT22;9834;48.076;11.878;2024-01-15T09:38:31;-0.20;99.90
19397;DHT22;9834;48.076;11.878;2024-01-15T09:41:02;-0.10;99.90
19397;DHT22;9834;48.076;11.878;2024-01-15T09:43:31;0.00;99.90
19397;DHT22;9834;48.076;11.878;2024-01-15T09:45:59;0.00;99.90
19397;DHT22;9834;48.076;11.878;2024-01-15T09:48:29;0.00;99.90
19397;DHT22;9834;48.076;11.878;2024-01-15T09:51:03;0.10;99.90
19397;DHT22;9834;48.076;11.878;2024-01-15T09:53:37;0.10;99.90
19397;DHT22;9834;48.076;11.878;2024-01-15T09:56:10;0.20;99.90
19397;DHT22;9834;48.076;11.878;2024-01-15T09:58:39;0.30;99.90
19397;DHT22;9834;48.076;11.878;2024-01-15T10:01:10;0.30;99.90
19397;DHT22;9834;48.076;11.878;2024-01-15T10:03:41;0.30;99.90
19397;DHT22;9834;48.076;11.878;2024-01-15T10:06:09;0.30;99.90
19397;DHT22;9834;48.076;11.878;2024-01-15T10:08:41;0.30;99.90
19397;DHT22;9834;48.076;11.878;2024-01-15T10:11:13;0.30;99.90
19397;DHT22;9834;48.076;11.878;2024-01-15T10:13:43;0.50;99.90
19397;DHT22;9834;48.076;11.878;2024-01-15T10:16:10;0.70;99.90
19397;DHT22;9834;48.076;11.878;2024-01-15T10:18:38;0.80;99.90
19397;DHT22;9834;48.076;11.878;2024-01-15T10:21:08;0.90;99.90
19397;DHT22;9834;48.076;11.878;2024-01-15T10:23:38;1.10;99.90
19397;DHT22;9834;48.076;11.878;2024-01-15T10:26:24;1.30;99.90
19397;DHT22;9834;48.076;11.878;2024-01-15T10:28:52;1.40;99.90
19397;DHT22;9834;48.076;11.878;2024-01-15T10:31:20;1.30;99.90
19397;DHT22;9834;48.076;11.878;2024-01-15T10:33:50;1.20;99.90
19397;DHT22;9834;48.076;11.878;2024-01-15T10:36:20;1.20;99.90
19397;DHT22;9834;48.076;11.878;2024-01-15T10:38:51;1.10;99.90
19397;DHT22;9834;48.076;11.878;2024-01-15T10:41:20;1.00;99.90
19397;DHT22;9834;48.076;11.878;2024-01-15T10:43:47;0.80;99.90
19397;DHT22;9834;48.076;11.878;2024-01-15T10:46:15;0.80;99.90
19397;DHT22;9834;48.076;11.878;2024-01-15T10:48:46;0.80;99.90
19397;DHT22;9834;48.076;11.878;2024-01-15T10:51:13;0.80;99.90
19397;DHT22;9834;48.076;11.878;2024-01-15T10:53:41;0.70;99.90
19397;DHT22;9834;48.076;11.878;2024-01-15T10:56:12;1.10;99.90
19397;DHT22;9834;48.076;11.878;2024-01-15T10:58:42;1.20;99.90
19397;DHT22;9834;48.076;11.878;2024-01-15T11:01:10;1.30;99.90
19397;DHT22;9834;48.076;11.878;2024-01-15T11:03:38;1.40;99.90
19397;DHT22;9834;48.076;11.878;2024-01-15T11:06:19;1.30;99.90
19397;DHT22;9834;48.076;11.878;2024-01-15T11:08:48;1.30;99.90
19397;DHT22;9834;48.076;11.878;2024-01-15T11:11:21;1.30;99.90
19397;DHT22;9834;48.076;11.878;2024-01-15T11:13:50;1.30;99.90
19397;DHT22;9834;48.076;11.878;2024-01-15T11:16:18;1.50;99.90
19397;DHT22;9834;48.076;11.878;2024-01-15T11:19:01;1.70;99.90
19397;DHT22;9834;48.076;11.878;2024-01-15T11:21:32;1.70;99.90
19397;DHT22;9834;48.076;11.878;2024-01-15T11:24:02;1.70;99.90
19397;DHT22;9834;48.076;11.878;2024-01-15T11:26:44;1.80;99.90
19397;DHT22;9834;48.076;11.878;2024-01-15T11:29:39;1.80;99.90
19397;DHT22;9834;48.076;11.878;2024-01-15T11:32:07;2.00;99.90
19397;DHT22;9834;48.076;11.878;2024-01-15T11:34:57;2.00;99.90
19397;DHT22;9834;48.076;11.878;2024-01-15T11:37:27;2.20;99.90
19397;DHT22;9834;48.076;11.878;2024-01-15T11:39:55;2.50;99.90
19397;DHT22;9834;48.076;11.878;2024-01-15T11:42:23;2.60;99.90
19397;DHT22;9834;48.076;11.878;2024-01-15T11:44:56;2.70;99.90
19397;DHT22;9834;48.076;11.878;2024-01-15T11:50:42;2.70;99.90
19397;DHT22;9834;48.076;11.878;2024-01-15T11:53:30;2.60;99.90
19397;DHT22;9834;48.076;11.878;2024-01-15T11:56:02;2.40;99.90
19397;DHT22;9834;48.076;11.878;2024-01-15T11:58:35;2.40;99.90
19397;DHT22;9834;48.076;11.878;2024-01-15T12:01:11;2.20;99.90
19397;DHT22;9834;48.076;11.878;2024-01-15T12:03:41;2.00;99.90
19397;DHT22;9834;48.076;11.878;2024-01-15T12:06:12;1.80;99.90
19397;DHT22;9834;48.076;11.878;2024-01-15T12:08:49;1.70;99.90
19397;DHT22;9834;48.076;11.878;2024-01-15T12:11:29;1.70;99.90
19397;DHT22;9834;48.076;11.878;2024-01-15T12:13:56;1.70;99.90
19397;DHT22;9834;48.076;11.878;2024-01-15T12:16:26;1.60;99.90
19397;DHT22;9834;48.076;11.878;2024-01-15T12:19:00;1.80;99.90
19397;DHT22;9834;48.076;11.878;2024-01-15T12:21:30;1.80;99.90
19397;DHT22;9834;48.076;11.878;2024-01-15T12:24:06;1.80;99.90
19397;DHT22;9834;48.076;11.878;2024-01-15T12:26:34;1.70;99.90
19397;DHT22;9834;48.076;11.878;2024-01-15T12:29:06;1.80;99.90
19397;DHT22;9834;48.076;11.878;2024-01-15T12:31:35;2.00;99.90
19397;DHT22;9834;48.076;11.878;2024-01-15T12:34:03;2.10;99.90
19397;DHT22;9834;48.076;11.878;2024-01-15T12:36:31;2.10;99.90
19397;DHT22;9834;48.076;11.878;2024-01-15T12:39:02;2.00;99.90
19397;DHT22;9834;48.076;11.878;2024-01-15T12:41:40;1.80;99.90
19397;DHT22;9834;48.076;11.878;2024-01-15T12:44:07;1.50;99.90
19397;DHT22;9834;48.076;11.878;2024-01-15T12:46:37;1.30;99.90
19397;DHT22;9834;48.076;11.878;2024-01-15T12:49:08;1.20;99.90
19397;DHT22;9834;48.076;11.878;2024-01-15T12:51:40;1.10;99.90
19397;DHT22;9834;48.076;11.878;2024-01-15T12:54:09;1.00;99.90
19397;DHT22;9834;48.076;11.878;2024-01-15T12:56:41;0.90;99.90
19397;DHT22;9834;48.076;11.878;2024-01-15T12:59:08;1.00;99.90
19397;DHT22;9834;48.076;11.878;2024-01-15T13:01:40;1.10;99.90
19397;DHT22;9834;48.076;11.878;2024-01-15T13:04:20;1.20;99.90
19397;DHT22;9834;48.076;11.878;2024-01-15T13:06:50;1.20;99.90
19397;DHT22;9834;48.076;11.878;2024-01-15T13:09:26;1.30;99.90
19397;DHT22;9834;48.076;11.878;2024-01-15T13:11:55;1.30;99.90
19397;DHT22;9834;48.076;11.878;2024-01-15T13:14:25;1.50;99.90
19397;DHT22;9834;48.076;11.878;2024-01-15T13:17:03;1.60;99.90
19397;DHT22;9834;48.076;11.878;2024-01-15T13:19:32;1.60;99.90
19397;DHT22;9834;48.076;11.878;2024-01-15T13:21:59;1.80;99.90
19397;DHT22;9834;48.076;11.878;2024-01-15T13:24:27;2.00;99.90
19397;DHT22;9834;48.076;11.878;2024-01-15T13:27:00;2.20;99.90
19397;DHT22;9834;48.076;11.878;2024-01-15T13:29:27;2.60;99.90
19397;DHT22;9834;48.076;11.878;2024-01-15T13:31:55;2.80;99.90
19397;DHT22;9834;48.076;11.878;2024-01-15T13:34:31;2.90;99.90
19397;DHT22;9834;48.076;11.878;2024-01-15T13:36:59;3.10;99.90
19397;DHT22;9834;48.076;11.878;2024-01-15T13:39:26;3.10;99.90
19397;DHT22;9834;48.076;11.878;2024-01-15T13:41:59;3.00;99.90
19397;DHT22;9834;48.076;11.878;2024-01-15T13:44:27;3.10;99.90
19397;DHT22;9834;48.076;11.878;2024-01-15T13:46:55;2.80;99.90
19397;DHT22;9834;48.076;11.878;2024-01-15T13:49:24;2.60;99.90
19397;DHT22;9834;48.076;11.878;2024-01-15T13:51:56;2.30;99.90
19397;DHT22;9834;48.076;11.878;2024-01-15T13:54:28;1.90;99.90
19397;DHT22;9834;48.076;11.878;2024-01-15T13:57:01;1.70;99.90
19397;DHT22;9834;48.076;11.878;2024-01-15T13:59:32;1.70;99.90
19397;DHT22;9834;48.076;11.878;2024-01-15T14:01:59;1.80;99.90
19397;DHT22;9834;48.076;11.878;2024-01-15T14:04:28;1.80;99.90
19397;DHT22;9834;48.076;11.878;2024-01-15T14:06:56;1.70;99.90
19397;DHT22;9834;48.076;11.878;2024-01-15T14:09:27;1.50;99.90
19397;DHT22;9834;48.076;11.878;2024-01-15T14:11:55;1.40;99.90
19397;DHT22;9834;48.076;11.878;2024-01-15T14:14:22;1.40;99.90
19397;DHT22;9834;48.076;11.878;2024-01-15T14:16:49;1.40;99.90
19397;DHT22;9834;48.076;11.878;2024-01-15T14:19:17;1.20;99.90
19397;DHT22;9834;48.076;11.878;2024-01-15T14:21:46;1.20;99.90
19397;DHT22;9834;48.076;11.878;2024-01-15T14:24:13;1.10;99.90
19397;DHT22;9834;48.076;11.878;2024-01-15T14:26:49;1.20;99.90
19397;DHT22;9834;48.076;11.878;2024-01-15T14:29:19;1.20;99.90
19397;DHT22;9834;48.076;11.878;2024-01-15T14:31:48;1.10;99.90
19397;DHT22;9834;48.076;11.878;2024-01-15T14:34:15;1.10;99.90
19397;DHT22;9834;48.076;11.878;2024-01-15T14:36:48;1.00;99.90
19397;DHT22;9834;48.076;11.878;2024-01-15T14:39:16;1.00;99.90
19397;DHT22;9834;48.076;11.878;2024-01-15T14:41:44;1.00;99.90
19397;DHT22;9834;48.076;11.878;2024-01-15T14:44:14;1.00;99.90
19397;DHT22;9834;48.076;11.878;2024-01-15T14:46:42;0.90;99.90
19397;DHT22;9834;48.076;11.878;2024-01-15T14:49:09;0.90;99.90
19397;DHT22;9834;48.076;11.878;2024-01-15T14:51:37;0.90;99.90
19397;DHT22;9834;48.076;11.878;2024-01-15T14:54:05;0.90;99.90
19397;DHT22;9834;48.076;11.878;2024-01-15T14:56:34;0.90;99.90
19397;DHT22;9834;48.076;11.878;2024-01-15T14:59:02;0.80;99.90
19397;DHT22;9834;48.076;11.878;2024-01-15T15:01:30;0.70;99.90
19397;DHT22;9834;48.076;11.878;2024-01-15T15:03:57;0.70;99.90
19397;DHT22;9834;48.076;11.878;2024-01-15T15:06:28;0.60;99.90
19397;DHT22;9834;48.076;11.878;2024-01-15T15:08:56;0.50;99.90
19397;DHT22;9834;48.076;11.878;2024-01-15T15:11:28;0.60;99.90
19397;DHT22;9834;48.076;11.878;2024-01-15T15:13:55;0.50;99.90
19397;DHT22;9834;48.076;11.878;2024-01-15T15:16:34;0.50;99.90
19397;DHT22;9834;48.076;11.878;2024-01-15T15:19:01;0.50;99.90
19397;DHT22;9834;48.076;11.878;2024-01-15T15:21:33;0.40;99.90
19397;DHT22;9834;48.076;11.878;2024-01-15T15:24:00;0.40;99.90
19397;DHT22;9834;48.076;11.878;2024-01-15T15:26:34;0.40;99.90
19397;DHT22;9834;48.076;11.878;2024-01-15T15:29:02;0.30;99.90
19397;DHT22;9834;48.076;11.878;2024-01-15T15:31:29;0.30;99.90
19397;DHT22;9834;48.076;11.878;2024-01-15T15:33:58;0.30;99.90
19397;DHT22;9834;48.076;11.878;2024-01-15T15:36:26;0.30;99.90
19397;DHT22;9834;48.076;11.878;2024-01-15T15:38:53;0.30;99.90
19397;DHT22;9834;48.076;11.878;2024-01-15T15:41:24;0.30;99.90
19397;DHT22;9834;48.076;11.878;2024-01-15T15:43:58;0.30;99.90
19397;DHT22;9834;48.076;11.878;2024-01-15T15:46:25;0.30;99.90
19397;DHT22;9834;48.076;11.878;2024-01-15T15:48:55;0.30;99.90
19397;DHT22;9834;48.076;11.878;2024-01-15T15:51:25;0.20;99.90
19397;DHT22;9834;48.076;11.878;2024-01-15T15:54:00;0.20;99.90
19397;DHT22;9834;48.076;11.878;2024-01-15T15:56:31;0.20;99.90
19397;DHT22;9834;48.076;11.878;2024-01-15T15:59:07;0.20;99.90
19397;DHT22;9834;48.076;11.878;2024-01-15T16:01:35;0.20;99.90
19397;DHT22;9834;48.076;11.878;2024-01-15T16:04:06;0.20;99.90